createdAt,value
2016-04-15T00:00:01.363Z,0
2016-04-15T00:01:01.351Z,0
2016-04-15T00:02:01.368Z,0
2016-04-15T00:03:01.356Z,0
2016-04-15T00:04:01.515Z,0
2016-04-15T00:05:01.329Z,0
2016-04-15T00:06:01.317Z,0
2016-04-15T00:07:01.320Z,0
2016-04-15T00:08:01.322Z,0
2016-04-15T00:09:01.290Z,0
2016-04-15T00:10:01.278Z,0
2016-04-15T00:11:01.281Z,0
2016-04-15T00:12:01.253Z,0
2016-04-15T00:13:01.240Z,0
2016-04-15T00:14:01.258Z,0
2016-04-15T00:15:01.229Z,0
2016-04-15T00:16:01.216Z,0
2016-04-15T00:17:01.219Z,0
2016-04-15T00:18:01.237Z,0
2016-04-15T00:19:01.192Z,0
2016-04-15T00:20:05.244Z,0
2016-04-15T00:21:01.182Z,0
2016-04-15T00:22:01.169Z,0
2016-04-15T00:23:01.188Z,0
2016-04-15T00:24:01.159Z,0
2016-04-15T00:25:01.162Z,0
2016-04-15T00:26:01.149Z,0
2016-04-15T00:27:01.136Z,0
2016-04-15T00:28:01.124Z,0
2016-04-15T00:29:01.141Z,0
2016-04-15T00:30:01.097Z,0
2016-04-15T00:31:01.115Z,0
2016-04-15T00:32:01.212Z,0
2016-04-15T00:33:01.106Z,0
2016-04-15T00:34:01.063Z,0
2016-04-15T00:35:01.065Z,0
2016-04-15T00:36:01.075Z,0
2016-04-15T00:37:01.062Z,0
2016-04-15T00:38:01.033Z,0
2016-04-15T00:39:01.035Z,0
2016-04-15T00:40:01.007Z,0
2016-04-15T00:41:01.026Z,0
2016-04-15T00:42:15.390Z,0
2016-04-15T00:43:02.611Z,0
2016-04-15T00:44:00.970Z,0
2016-04-15T00:45:01.130Z,0
2016-04-15T00:46:01.542Z,0
2016-04-15T00:47:01.073Z,0
2016-04-15T00:48:01.014Z,0
2016-04-15T00:49:00.938Z,0
2016-04-15T00:50:00.925Z,0
2016-04-15T00:51:02.025Z,0
2016-04-15T00:52:01.714Z,0
2016-04-15T00:53:01.370Z,0
2016-04-15T00:54:00.920Z,0
2016-04-15T00:55:01.219Z,0
2016-04-15T00:56:01.394Z,0
2016-04-15T00:57:01.208Z,0
2016-04-15T00:58:03.011Z,0
2016-04-15T00:59:02.545Z,0
2016-04-15T01:00:00.951Z,0
2016-04-15T01:01:02.019Z,0
2016-04-15T01:02:01.629Z,0
2016-04-15T01:03:01.413Z,0
2016-04-15T01:04:01.369Z,0
2016-04-15T01:05:01.012Z,0
2016-04-15T01:06:00.780Z,0
2016-04-15T01:07:00.767Z,0
2016-04-15T01:08:02.257Z,0
2016-04-15T01:09:02.323Z,0
2016-04-15T01:10:01.809Z,0
2016-04-15T01:11:00.731Z,0
2016-04-15T01:12:01.656Z,0
2016-04-15T01:13:01.345Z,0
2016-04-15T01:14:00.770Z,0
2016-04-15T01:15:00.695Z,0
2016-04-15T01:16:00.713Z,0
2016-04-15T01:17:00.701Z,0
2016-04-15T01:18:00.687Z,0
2016-04-15T01:19:00.659Z,0
2016-04-15T01:20:00.678Z,0
2016-04-15T01:21:00.664Z,0
2016-04-15T01:22:00.495Z,0
2016-04-15T01:23:00.653Z,0
2016-04-15T01:24:00.625Z,0
2016-04-15T01:25:00.613Z,0
2016-04-15T01:26:00.599Z,0
2016-04-15T01:27:00.619Z,0
2016-04-15T01:28:00.574Z,0
2016-04-15T01:29:00.577Z,0
2016-04-15T01:30:00.736Z,0
2016-04-15T01:31:00.550Z,0
2016-04-15T01:32:00.569Z,0
2016-04-15T01:33:00.571Z,0
2016-04-15T01:34:00.558Z,0
2016-04-15T01:35:00.515Z,0
2016-04-15T01:36:00.518Z,0
2016-04-15T01:37:00.504Z,0
2016-04-15T01:38:00.523Z,0
2016-04-15T01:39:00.525Z,0
2016-04-15T01:40:00.496Z,0
2016-04-15T01:41:00.468Z,0
2016-04-15T01:42:00.454Z,0
2016-04-15T01:43:00.474Z,0
2016-04-15T01:44:00.460Z,0
2016-04-15T01:45:00.573Z,0
2016-04-15T01:46:00.435Z,0
2016-04-15T01:47:00.437Z,0
2016-04-15T01:48:00.409Z,0
2016-04-15T01:49:00.411Z,0
2016-04-15T01:50:00.398Z,0
2016-04-15T01:51:00.417Z,0
2016-04-15T01:52:00.388Z,0
2016-04-15T01:53:00.375Z,0
2016-04-15T01:54:00.361Z,0
2016-04-15T01:55:00.364Z,0
2016-04-15T01:56:00.336Z,0
2016-04-15T01:57:00.338Z,0
2016-04-15T01:58:00.311Z,0
2016-04-15T01:59:00.329Z,0
2016-04-15T02:00:00.238Z,0
2016-04-15T02:01:02.572Z,0
2016-04-15T02:02:00.681Z,0
2016-04-15T02:03:01.105Z,0
2016-04-15T02:04:14.470Z,0
2016-04-15T02:05:00.251Z,0
2016-04-15T02:06:00.613Z,0
2016-04-15T02:07:00.710Z,0
2016-04-15T02:08:00.260Z,0
2016-04-15T02:09:00.232Z,0
2016-04-15T02:10:02.830Z,0
2016-04-15T02:11:00.455Z,0
2016-04-15T02:12:00.208Z,0
2016-04-15T02:13:01.085Z,0
2016-04-15T02:14:00.760Z,0
2016-04-15T02:15:00.700Z,0
2016-04-15T02:16:00.375Z,0
2016-04-15T02:17:00.487Z,0
2016-04-15T02:18:00.161Z,0
2016-04-15T02:19:00.133Z,0
2016-04-15T02:20:00.166Z,0
2016-04-15T02:20:59.981Z,0
2016-04-15T02:22:00.109Z,0
2016-04-15T02:23:00.111Z,0
2016-04-15T02:24:00.100Z,0
2016-04-15T02:25:00.086Z,0
2016-04-15T02:26:00.073Z,0
2016-04-15T02:27:00.061Z,0
2016-04-15T02:28:00.078Z,0
2016-04-15T02:28:59.300Z,0
2016-04-15T02:30:00.178Z,0
2016-04-15T02:31:00.024Z,0
2016-04-15T02:32:00.027Z,0
2016-04-15T02:33:00.014Z,0
2016-04-15T02:34:00.001Z,0
2016-04-15T02:34:59.988Z,0
2016-04-15T02:36:00.006Z,0
2016-04-15T02:36:59.977Z,0
2016-04-15T02:37:59.965Z,0
2016-04-15T02:38:59.952Z,0
2016-04-15T02:39:59.940Z,0
2016-04-15T02:40:59.957Z,0
2016-04-15T02:41:59.929Z,0
2016-04-15T02:42:59.948Z,0
2016-04-15T02:43:59.903Z,0
2016-04-15T02:45:00.156Z,0
2016-04-15T02:45:59.892Z,0
2016-04-15T02:46:59.879Z,0
2016-04-15T02:47:59.898Z,0
2016-04-15T02:48:59.854Z,0
2016-04-15T02:49:59.857Z,0
2016-04-15T02:50:59.845Z,0
2016-04-15T02:51:59.862Z,0
2016-04-15T02:52:59.818Z,0
2016-04-15T02:53:59.837Z,0
2016-04-15T02:54:59.823Z,0
2016-04-15T02:55:59.779Z,0
2016-04-15T02:56:59.797Z,0
2016-04-15T02:57:59.800Z,0
2016-04-15T02:58:59.787Z,0
2016-04-15T02:59:59.805Z,0
2016-04-15T03:00:59.792Z,0
2016-04-15T03:01:59.764Z,0
2016-04-15T03:02:59.736Z,0
2016-04-15T03:03:59.754Z,0
2016-04-15T03:04:59.710Z,0
2016-04-15T03:05:59.713Z,0
2016-04-15T03:06:59.699Z,0
2016-04-15T03:07:59.718Z,0
2016-04-15T03:08:59.674Z,0
2016-04-15T03:09:59.676Z,0
2016-04-15T03:10:59.679Z,0
2016-04-15T03:11:59.650Z,0
2016-04-15T03:12:59.653Z,0
2016-04-15T03:13:59.671Z,0
2016-04-15T03:14:59.470Z,0
2016-04-15T03:15:59.629Z,0
2016-04-15T03:17:00.304Z,0
2016-04-15T03:18:02.228Z,0
2016-04-15T03:19:00.309Z,0
2016-04-15T03:20:00.968Z,0
2016-04-15T03:21:02.315Z,0
2016-04-15T03:21:59.928Z,0
2016-04-15T03:22:59.773Z,0
2016-04-15T03:23:59.698Z,0
2016-04-15T03:24:59.686Z,0
2016-04-15T03:25:59.516Z,0
2016-04-15T03:27:02.409Z,0
2016-04-15T03:27:59.489Z,0
2016-04-15T03:29:14.855Z,0
2016-04-15T03:30:01.636Z,0
2016-04-15T03:31:00.545Z,0
2016-04-15T03:31:59.861Z,0
2016-04-15T03:33:14.850Z,0
2016-04-15T03:33:59.850Z,0
2016-04-15T03:34:59.431Z,0
2016-04-15T03:35:59.433Z,0
2016-04-15T03:36:59.421Z,0
2016-04-15T03:37:59.438Z,0
2016-04-15T03:38:59.410Z,0
2016-04-15T03:39:59.382Z,0
2016-04-15T03:40:59.385Z,0
2016-04-15T03:41:59.387Z,0
2016-04-15T03:42:59.359Z,0
2016-04-15T03:43:59.330Z,0
2016-04-15T03:44:59.364Z,0
2016-04-15T03:45:59.335Z,0
2016-04-15T03:46:59.323Z,0
2016-04-15T03:47:59.326Z,0
2016-04-15T03:48:59.312Z,0
2016-04-15T03:49:59.299Z,0
2016-04-15T03:50:59.286Z,0
2016-04-15T03:51:59.289Z,0
2016-04-15T03:52:59.261Z,0
2016-04-15T03:53:59.263Z,0
2016-04-15T03:54:59.234Z,5
2016-04-15T03:55:59.253Z,5
2016-04-15T03:56:59.239Z,5
2016-04-15T03:57:59.227Z,5
2016-04-15T03:58:59.197Z,10
2016-04-15T03:59:59.216Z,10
2016-04-15T04:00:59.188Z,10
2016-04-15T04:01:59.191Z,10
2016-04-15T04:02:59.178Z,10
2016-04-15T04:03:59.180Z,15
2016-04-15T04:04:59.152Z,15
2016-04-15T04:05:59.171Z,15
2016-04-15T04:06:59.141Z,15
2016-04-15T04:07:59.144Z,20
2016-04-15T04:08:59.147Z,20
2016-04-15T04:09:59.134Z,20
2016-04-15T04:10:59.105Z,20
2016-04-15T04:11:59.093Z,25
2016-04-15T04:12:59.080Z,25
2016-04-15T04:13:59.067Z,25
2016-04-15T04:14:59.070Z,25
2016-04-15T04:15:59.088Z,25
2016-04-15T04:16:59.059Z,25
2016-04-15T04:17:59.046Z,25
2016-04-15T04:18:59.018Z,25
2016-04-15T04:19:59.020Z,30
2016-04-15T04:20:59.039Z,30
2016-04-15T04:21:59.010Z,30
2016-04-15T04:22:59.012Z,35
2016-04-15T04:23:58.969Z,35
2016-04-15T04:24:58.971Z,35
2016-04-15T04:25:58.958Z,40
2016-04-15T04:26:58.961Z,40
2016-04-15T04:27:58.933Z,45
2016-04-15T04:28:58.951Z,45
2016-04-15T04:29:58.939Z,45
2016-04-15T04:30:58.925Z,50
2016-04-15T04:31:58.928Z,50
2016-04-15T04:32:58.915Z,50
2016-04-15T04:33:58.917Z,50
2016-04-15T04:34:58.889Z,55
2016-04-15T04:36:14.488Z,55
2016-04-15T04:37:00.457Z,60
2016-04-15T04:37:58.866Z,60
2016-04-15T04:38:59.477Z,65
2016-04-15T04:40:00.340Z,65
2016-04-15T04:41:13.657Z,65
2016-04-15T04:41:59.485Z,65
2016-04-15T04:42:58.832Z,70
2016-04-15T04:43:58.835Z,75
2016-04-15T04:45:00.276Z,75
2016-04-15T04:46:00.918Z,80
2016-04-15T04:46:59.984Z,80
2016-04-15T04:48:59.786Z,85
2016-04-15T04:49:59.664Z,85
2016-04-15T04:50:59.666Z,90
2016-04-15T04:51:59.545Z,95
2016-04-15T04:52:59.249Z,100
2016-04-15T04:53:58.845Z,105
2016-04-15T04:54:59.212Z,110
2016-04-15T04:55:58.761Z,115
2016-04-15T04:56:58.717Z,120
2016-04-15T04:57:58.719Z,120
2016-04-15T04:58:58.706Z,120
2016-04-15T04:59:58.678Z,125
2016-04-15T05:00:58.447Z,130
2016-04-15T05:01:58.667Z,135
2016-04-15T05:02:58.686Z,140
2016-04-15T05:03:58.689Z,145
2016-04-15T05:04:58.691Z,150
2016-04-15T05:05:58.631Z,155
2016-04-15T05:06:58.649Z,160
2016-04-15T05:07:58.621Z,165
2016-04-15T05:08:58.639Z,175
2016-04-15T05:09:58.626Z,180
2016-04-15T05:10:58.630Z,185
2016-04-15T05:11:58.616Z,190
2016-04-15T05:12:58.619Z,200
2016-04-15T05:13:58.575Z,215
2016-04-15T05:14:58.577Z,220
2016-04-15T05:15:58.596Z,230
2016-04-15T05:16:58.568Z,240
2016-04-15T05:17:58.585Z,260
2016-04-15T05:18:58.557Z,275
2016-04-15T05:19:58.543Z,290
2016-04-15T05:20:58.562Z,290
2016-04-15T05:21:58.534Z,305
2016-04-15T05:22:58.551Z,315
2016-04-15T05:23:58.523Z,320
2016-04-15T05:24:58.526Z,330
2016-04-15T05:25:58.497Z,335
2016-04-15T05:26:58.516Z,345
2016-04-15T05:27:58.534Z,345
2016-04-15T05:28:58.490Z,345
2016-04-15T05:29:58.493Z,345
2016-04-15T05:30:58.511Z,345
2016-04-15T05:31:58.483Z,350
2016-04-15T05:32:58.469Z,350
2016-04-15T05:33:58.488Z,360
2016-04-15T05:34:58.459Z,365
2016-04-15T05:35:58.477Z,350
2016-04-15T05:36:58.450Z,345
2016-04-15T05:37:58.467Z,375
2016-04-15T05:38:58.455Z,385
2016-04-15T05:39:58.473Z,390
2016-04-15T05:40:58.429Z,405
2016-04-15T05:41:58.463Z,415
2016-04-15T05:42:58.434Z,420
2016-04-15T05:43:58.437Z,390
2016-04-15T05:44:58.440Z,390
2016-04-15T05:45:58.598Z,400
2016-04-15T05:46:58.429Z,435
2016-04-15T05:47:58.432Z,425
2016-04-15T05:48:58.434Z,410
2016-04-15T05:49:58.437Z,390
2016-04-15T05:50:58.409Z,380
2016-04-15T05:51:58.426Z,370
2016-04-15T05:52:58.415Z,375
2016-04-15T05:53:58.432Z,360
2016-04-15T05:55:00.717Z,365
2016-04-15T05:55:59.110Z,375
2016-04-15T05:56:59.409Z,380
2016-04-15T05:58:01.600Z,395
2016-04-15T05:58:58.898Z,400
2016-04-15T05:59:58.620Z,410
2016-04-15T06:01:12.860Z,405
2016-04-15T06:01:58.703Z,410
2016-04-15T06:02:58.769Z,415
2016-04-15T06:04:00.021Z,405
2016-04-15T06:05:00.149Z,410
2016-04-15T06:05:59.105Z,425
2016-04-15T06:07:00.060Z,415
2016-04-15T06:07:58.954Z,420
2016-04-15T06:09:00.222Z,425
2016-04-15T06:09:58.616Z,405
2016-04-15T06:10:58.416Z,410
2016-04-15T06:11:58.794Z,380
2016-04-15T06:12:58.718Z,400
2016-04-15T06:13:58.408Z,420
2016-04-15T06:14:58.379Z,430
2016-04-15T06:15:58.319Z,445
2016-04-15T06:16:58.385Z,480
2016-04-15T06:17:58.371Z,490
2016-04-15T06:18:58.406Z,515
2016-04-15T06:19:58.409Z,540
2016-04-15T06:20:58.402Z,580
2016-04-15T06:21:58.233Z,620
2016-04-15T06:22:58.392Z,635
2016-04-15T06:23:58.379Z,660
2016-04-15T06:24:58.382Z,670
2016-04-15T06:25:58.400Z,685
2016-04-15T06:26:58.372Z,700
2016-04-15T06:27:58.394Z,695
2016-04-15T06:28:58.413Z,675
2016-04-15T06:29:58.384Z,670
2016-04-15T06:30:58.559Z,675
2016-04-15T06:31:58.390Z,695
2016-04-15T06:32:58.393Z,665
2016-04-15T06:33:58.364Z,685
2016-04-15T06:34:58.414Z,745
2016-04-15T06:35:58.369Z,785
2016-04-15T06:36:58.404Z,810
2016-04-15T06:37:58.422Z,830
2016-04-15T06:38:58.393Z,805
2016-04-15T06:39:58.396Z,790
2016-04-15T06:40:58.382Z,780
2016-04-15T06:41:58.401Z,835
2016-04-15T06:42:58.388Z,860
2016-04-15T06:43:58.406Z,940
2016-04-15T06:44:58.409Z,975
2016-04-15T06:45:58.427Z,995
2016-04-15T06:46:58.398Z,1000
2016-04-15T06:47:58.401Z,1020
2016-04-15T06:48:58.419Z,960
2016-04-15T06:49:58.407Z,1050
2016-04-15T06:50:58.441Z,1045
2016-04-15T06:51:58.412Z,1005
2016-04-15T06:52:58.431Z,985
2016-04-15T06:53:58.417Z,990
2016-04-15T06:54:58.467Z,990
2016-04-15T06:55:58.438Z,1025
2016-04-15T06:56:58.300Z,980
2016-04-15T06:57:58.444Z,955
2016-04-15T06:58:58.463Z,860
2016-04-15T06:59:58.466Z,790
2016-04-15T07:00:58.406Z,745
2016-04-15T07:01:58.471Z,785
2016-04-15T07:02:58.505Z,800
2016-04-15T07:03:58.460Z,835
2016-04-15T07:04:58.494Z,865
2016-04-15T07:05:58.497Z,895
2016-04-15T07:06:58.499Z,865
2016-04-15T07:07:58.487Z,890
2016-04-15T07:08:58.521Z,880
2016-04-15T07:09:58.507Z,810
2016-04-15T07:10:58.526Z,735
2016-04-15T07:11:58.356Z,755
2016-04-15T07:12:58.547Z,740
2016-04-15T07:14:00.690Z,715
2016-04-15T07:14:58.615Z,705
2016-04-15T07:17:00.245Z,770
2016-04-15T07:17:59.764Z,845
2016-04-15T07:18:58.876Z,855
2016-04-15T07:19:59.301Z,885
2016-04-15T07:20:58.584Z,870
2016-04-15T07:21:58.638Z,875
2016-04-15T07:23:00.704Z,880
2016-04-15T07:24:00.378Z,955
2016-04-15T07:24:58.974Z,1050
2016-04-15T07:26:15.448Z,1080
2016-04-15T07:27:12.826Z,1140
2016-04-15T07:27:58.925Z,1095
2016-04-15T07:28:59.257Z,1135
2016-04-15T07:29:58.712Z,1130
2016-04-15T07:30:58.793Z,1115
2016-04-15T07:31:58.999Z,1025
2016-04-15T07:32:58.642Z,890
2016-04-15T07:33:58.676Z,780
2016-04-15T07:34:58.647Z,850
2016-04-15T07:35:58.681Z,945
2016-04-15T07:36:58.700Z,915
2016-04-15T07:37:58.686Z,875
2016-04-15T07:38:58.689Z,1080
2016-04-15T07:39:58.708Z,1080
2016-04-15T07:40:58.710Z,1090
2016-04-15T07:41:58.714Z,930
2016-04-15T07:42:58.731Z,960
2016-04-15T07:43:58.719Z,965
2016-04-15T07:44:58.768Z,1060
2016-04-15T07:45:58.614Z,1200
2016-04-15T07:46:58.742Z,1230
2016-04-15T07:47:58.760Z,1255
2016-04-15T07:48:58.778Z,1295
2016-04-15T07:49:58.766Z,1245
2016-04-15T07:50:58.783Z,1145
2016-04-15T07:51:58.786Z,1155
2016-04-15T07:52:58.788Z,1070
2016-04-15T07:53:58.791Z,1135
2016-04-15T07:54:58.810Z,1225
2016-04-15T07:55:58.812Z,1180
2016-04-15T07:56:58.832Z,1130
2016-04-15T07:57:58.834Z,1065
2016-04-15T07:58:58.837Z,1055
2016-04-15T07:59:58.839Z,995
2016-04-15T08:00:58.935Z,830
2016-04-15T08:01:58.845Z,980
2016-04-15T08:02:58.878Z,950
2016-04-15T08:03:58.865Z,820
2016-04-15T08:04:58.900Z,795
2016-04-15T08:05:58.871Z,970
2016-04-15T08:06:58.921Z,950
2016-04-15T08:07:58.893Z,860
2016-04-15T08:08:58.926Z,880
2016-04-15T08:09:58.914Z,875
2016-04-15T08:11:00.400Z,860
2016-04-15T08:11:58.934Z,660
2016-04-15T08:12:58.937Z,600
2016-04-15T08:13:58.939Z,625
2016-04-15T08:14:58.942Z,745
2016-04-15T08:15:58.975Z,870
2016-04-15T08:16:58.979Z,890
2016-04-15T08:17:59.013Z,875
2016-04-15T08:18:58.984Z,950
2016-04-15T08:19:58.831Z,705
2016-04-15T08:20:59.026Z,1060
2016-04-15T08:21:59.029Z,1110
2016-04-15T08:22:59.017Z,1090
2016-04-15T08:23:58.988Z,1005
2016-04-15T08:24:59.053Z,965
2016-04-15T08:25:59.008Z,630
2016-04-15T08:26:59.027Z,635
2016-04-15T08:27:59.045Z,670
2016-04-15T08:28:59.032Z,640
2016-04-15T08:29:59.036Z,630
2016-04-15T08:30:59.038Z,655
2016-04-15T08:31:59.061Z,705
2016-04-15T08:33:00.747Z,750
2016-04-15T08:34:01.136Z,790
2016-04-15T08:35:28.617Z,785
2016-04-15T08:36:00.711Z,770
2016-04-15T08:37:14.693Z,700
2016-04-15T08:37:59.537Z,665
2016-04-15T08:38:59.836Z,620
2016-04-15T08:39:59.745Z,600
2016-04-15T08:40:59.450Z,610
2016-04-15T08:42:01.358Z,640
2016-04-15T08:43:00.647Z,665
2016-04-15T08:43:59.405Z,690
2016-04-15T08:45:01.008Z,710
2016-04-15T08:45:59.610Z,730
2016-04-15T08:46:59.960Z,740
2016-04-15T08:48:00.434Z,755
2016-04-15T08:49:00.047Z,755
2016-04-15T08:50:00.068Z,760
2016-04-15T08:50:59.447Z,775
2016-04-15T08:51:59.468Z,785
2016-04-15T08:52:59.472Z,780
2016-04-15T08:53:59.459Z,775
2016-04-15T08:54:59.479Z,770
2016-04-15T08:55:59.497Z,770
2016-04-15T08:56:59.500Z,775
2016-04-15T08:57:59.488Z,780
2016-04-15T08:58:59.506Z,770
2016-04-15T08:59:59.479Z,770
2016-04-15T09:00:59.528Z,750
2016-04-15T09:01:59.484Z,740
2016-04-15T09:02:59.518Z,715
2016-04-15T09:03:59.521Z,715
2016-04-15T09:04:59.524Z,695
2016-04-15T09:05:59.512Z,685
2016-04-15T09:06:59.529Z,685
2016-04-15T09:07:59.532Z,685
2016-04-15T09:08:59.534Z,680
2016-04-15T09:09:59.553Z,675
2016-04-15T09:10:59.556Z,665
2016-04-15T09:11:59.527Z,640
2016-04-15T09:12:59.561Z,620
2016-04-15T09:13:59.547Z,615
2016-04-15T09:14:59.550Z,625
2016-04-15T09:15:59.553Z,650
2016-04-15T09:16:59.572Z,675
2016-04-15T09:17:59.559Z,670
2016-04-15T09:18:59.577Z,675
2016-04-15T09:19:59.596Z,675
2016-04-15T09:20:59.598Z,670
2016-04-15T09:21:59.585Z,680
2016-04-15T09:22:59.619Z,675
2016-04-15T09:23:59.591Z,670
2016-04-15T09:24:59.624Z,690
2016-04-15T09:25:59.613Z,720
2016-04-15T09:26:59.599Z,740
2016-04-15T09:27:59.618Z,725
2016-04-15T09:28:59.604Z,725
2016-04-15T09:29:59.638Z,755
2016-04-15T09:30:59.626Z,790
2016-04-15T09:31:59.643Z,795
2016-04-15T09:32:59.631Z,800
2016-04-15T09:33:59.664Z,825
2016-04-15T09:34:59.620Z,840
2016-04-15T09:35:59.639Z,840
2016-04-15T09:36:59.657Z,815
2016-04-15T09:37:59.676Z,805
2016-04-15T09:38:59.647Z,815
2016-04-15T09:39:59.665Z,815
2016-04-15T09:40:59.683Z,790
2016-04-15T09:41:59.670Z,795
2016-04-15T09:42:59.673Z,820
2016-04-15T09:43:59.691Z,825
2016-04-15T09:44:59.678Z,815
2016-04-15T09:45:59.696Z,820
2016-04-15T09:46:59.699Z,815
2016-04-15T09:47:59.702Z,815
2016-04-15T09:48:59.689Z,790
2016-04-15T09:49:59.723Z,785
2016-04-15T09:50:59.710Z,790
2016-04-15T09:52:01.103Z,780
2016-04-15T09:53:01.012Z,770
2016-04-15T09:54:28.877Z,790
2016-04-15T09:56:01.661Z,795
2016-04-15T09:56:59.977Z,790
2016-04-15T09:58:00.917Z,790
2016-04-15T09:58:59.841Z,795
2016-04-15T09:59:59.969Z,800
2016-04-15T10:01:01.534Z,800
2016-04-15T10:02:00.396Z,800
2016-04-15T10:03:01.195Z,805
2016-04-15T10:04:15.576Z,810
2016-04-15T10:05:00.670Z,810
2016-04-15T10:06:00.359Z,805
2016-04-15T10:06:59.956Z,770
2016-04-15T10:08:00.100Z,745
2016-04-15T10:08:59.853Z,700
2016-04-15T10:09:59.918Z,680
2016-04-15T10:11:00.014Z,610
2016-04-15T10:11:59.861Z,550
2016-04-15T10:12:59.816Z,550
2016-04-15T10:13:59.834Z,545
2016-04-15T10:14:59.837Z,530
2016-04-15T10:15:59.855Z,530
2016-04-15T10:16:59.842Z,490
2016-04-15T10:17:59.829Z,415
2016-04-15T10:18:59.863Z,385
2016-04-15T10:19:59.850Z,370
2016-04-15T10:20:59.885Z,370
2016-04-15T10:21:59.856Z,395
2016-04-15T10:22:59.858Z,425
2016-04-15T10:23:59.861Z,450
2016-04-15T10:24:59.895Z,455
2016-04-15T10:25:59.866Z,475
2016-04-15T10:26:59.901Z,500
2016-04-15T10:27:59.904Z,515
2016-04-15T10:28:59.891Z,515
2016-04-15T10:29:59.878Z,490
2016-04-15T10:30:59.912Z,455
2016-04-15T10:32:00.368Z,430
2016-04-15T10:32:59.901Z,440
2016-04-15T10:33:59.904Z,440
2016-04-15T10:34:59.922Z,390
2016-04-15T10:35:59.925Z,335
2016-04-15T10:36:59.943Z,290
2016-04-15T10:37:59.930Z,250
2016-04-15T10:38:59.934Z,220
2016-04-15T10:39:59.936Z,200
2016-04-15T10:40:59.782Z,205
2016-04-15T10:41:59.925Z,230
2016-04-15T10:42:59.959Z,260
2016-04-15T10:43:59.947Z,310
2016-04-15T10:44:59.949Z,345
2016-04-15T10:45:59.936Z,380
2016-04-15T10:47:00.094Z,425
2016-04-15T10:47:59.957Z,445
2016-04-15T10:48:59.960Z,465
2016-04-15T10:49:59.962Z,480
2016-04-15T10:50:59.966Z,495
2016-04-15T10:51:59.968Z,505
2016-04-15T10:52:59.955Z,505
2016-04-15T10:53:59.988Z,510
2016-04-15T10:54:59.976Z,515
2016-04-15T10:55:59.979Z,510
2016-04-15T10:56:59.982Z,495
2016-04-15T10:57:59.969Z,480
2016-04-15T10:58:59.988Z,475
2016-04-15T10:59:59.958Z,470
2016-04-15T11:00:59.993Z,455
2016-04-15T11:02:00.511Z,440
2016-04-15T11:02:59.982Z,410
2016-04-15T11:04:00.001Z,380
2016-04-15T11:05:00.003Z,350
2016-04-15T11:06:00.037Z,330
2016-04-15T11:06:59.976Z,315
2016-04-15T11:07:59.714Z,300
2016-04-15T11:08:59.982Z,305
2016-04-15T11:10:00.829Z,305
2016-04-15T11:11:00.879Z,280
2016-04-15T11:12:00.428Z,250
2016-04-15T11:13:01.915Z,230
2016-04-15T11:14:00.918Z,225
2016-04-15T11:15:02.280Z,225
2016-04-15T11:16:00.220Z,220
2016-04-15T11:17:00.738Z,225
2016-04-15T11:18:00.084Z,230
2016-04-15T11:19:00.040Z,225
2016-04-15T11:20:01.402Z,225
2016-04-15T11:21:00.014Z,225
2016-04-15T11:22:00.267Z,235
2016-04-15T11:23:00.848Z,235
2016-04-15T11:24:01.225Z,240
2016-04-15T11:25:01.463Z,275
2016-04-15T11:26:00.043Z,295
2016-04-15T11:27:00.015Z,300
2016-04-15T11:28:00.580Z,295
2016-04-15T11:29:00.083Z,305
2016-04-15T11:30:00.039Z,285
2016-04-15T11:31:00.042Z,275
2016-04-15T11:32:00.091Z,255
2016-04-15T11:33:00.016Z,245
2016-04-15T11:34:00.034Z,240
2016-04-15T11:34:59.865Z,235
2016-04-15T11:36:00.040Z,250
2016-04-15T11:37:00.042Z,255
2016-04-15T11:38:00.045Z,260
2016-04-15T11:39:00.047Z,270
2016-04-15T11:40:00.051Z,265
2016-04-15T11:41:00.021Z,260
2016-04-15T11:41:59.978Z,260
2016-04-15T11:43:00.026Z,265
2016-04-15T11:44:00.045Z,275
2016-04-15T11:45:00.017Z,260
2016-04-15T11:46:00.050Z,265
2016-04-15T11:46:59.975Z,295
2016-04-15T11:48:00.009Z,315
2016-04-15T11:49:00.058Z,325
2016-04-15T11:50:00.014Z,340
2016-04-15T11:51:00.017Z,340
2016-04-15T11:52:00.050Z,325
2016-04-15T11:53:00.053Z,295
2016-04-15T11:54:00.056Z,270
2016-04-15T11:55:00.027Z,250
2016-04-15T11:56:00.046Z,230
2016-04-15T11:57:00.033Z,230
2016-04-15T11:57:59.317Z,230
2016-04-15T11:59:00.039Z,250
2016-04-15T12:00:00.041Z,260
2016-04-15T12:01:00.029Z,280
2016-04-15T12:02:00.093Z,260
2016-04-15T12:03:00.018Z,245
2016-04-15T12:04:00.036Z,235
2016-04-15T12:05:00.023Z,235
2016-04-15T12:06:00.042Z,235
2016-04-15T12:07:00.045Z,235
2016-04-15T12:08:00.015Z,240
2016-04-15T12:08:59.988Z,230
2016-04-15T12:10:00.023Z,220
2016-04-15T12:11:00.042Z,205
2016-04-15T12:11:59.873Z,185
2016-04-15T12:13:00.031Z,180
2016-04-15T12:14:00.034Z,190
2016-04-15T12:15:00.021Z,215
2016-04-15T12:16:00.039Z,230
2016-04-15T12:17:00.166Z,240
2016-04-15T12:17:59.889Z,235
2016-04-15T12:19:00.016Z,220
2016-04-15T12:20:00.035Z,210
2016-04-15T12:21:00.038Z,185
2016-04-15T12:21:59.883Z,155
2016-04-15T12:23:00.043Z,150
2016-04-15T12:24:00.029Z,160
2016-04-15T12:25:00.016Z,155
2016-04-15T12:26:00.014Z,150
2016-04-15T12:27:00.031Z,150
2016-04-15T12:28:00.034Z,150
2016-04-15T12:29:01.100Z,155
2016-04-15T12:30:00.759Z,165
2016-04-15T12:31:00.028Z,170
2016-04-15T12:32:17.189Z,175
2016-04-15T12:33:00.064Z,180
2016-04-15T12:34:00.785Z,180
2016-04-15T12:35:01.256Z,180
2016-04-15T12:36:14.778Z,185
2016-04-15T12:37:00.231Z,190
2016-04-15T12:38:00.062Z,195
2016-04-15T12:39:01.408Z,170
2016-04-15T12:40:02.223Z,170
2016-04-15T12:41:14.213Z,190
2016-04-15T12:42:02.885Z,180
2016-04-15T12:43:02.372Z,200
2016-04-15T12:44:01.218Z,220
2016-04-15T12:45:00.533Z,225
2016-04-15T12:46:00.598Z,250
2016-04-15T12:47:00.336Z,255
2016-04-15T12:48:00.010Z,270
2016-04-15T12:49:00.013Z,275
2016-04-15T12:50:00.047Z,280
2016-04-15T12:51:00.018Z,260
2016-04-15T12:52:00.068Z,245
2016-04-15T12:53:00.007Z,295
2016-04-15T12:54:00.010Z,310
2016-04-15T12:54:59.997Z,290
2016-04-15T12:56:00.015Z,355
2016-04-15T12:56:59.987Z,390
2016-04-15T12:58:00.021Z,375
2016-04-15T12:59:00.009Z,350
2016-04-15T12:59:59.995Z,335
2016-04-15T13:00:59.983Z,320
2016-04-15T13:02:00.000Z,315
2016-04-15T13:02:59.988Z,325
2016-04-15T13:03:59.991Z,325
2016-04-15T13:04:59.994Z,310
2016-04-15T13:05:59.997Z,285
2016-04-15T13:06:59.984Z,270
2016-04-15T13:07:59.892Z,245
2016-04-15T13:08:59.973Z,235
2016-04-15T13:09:59.975Z,215
2016-04-15T13:10:59.978Z,210
2016-04-15T13:11:59.996Z,220
2016-04-15T13:13:00.015Z,225
2016-04-15T13:13:59.986Z,215
2016-04-15T13:14:59.989Z,210
2016-04-15T13:15:59.977Z,215
2016-04-15T13:16:59.963Z,225
2016-04-15T13:17:59.987Z,225
2016-04-15T13:18:59.974Z,215
2016-04-15T13:19:59.976Z,205
2016-04-15T13:20:59.963Z,200
2016-04-15T13:21:59.981Z,185
2016-04-15T13:22:59.953Z,165
2016-04-15T13:23:59.987Z,155
2016-04-15T13:24:59.959Z,140
2016-04-15T13:25:59.976Z,140
2016-04-15T13:26:59.948Z,125
2016-04-15T13:27:59.967Z,125
2016-04-15T13:28:59.953Z,115
2016-04-15T13:29:59.956Z,120
2016-04-15T13:30:59.974Z,150
2016-04-15T13:31:59.961Z,160
2016-04-15T13:32:59.964Z,150
2016-04-15T13:33:59.983Z,170
2016-04-15T13:34:59.954Z,170
2016-04-15T13:35:59.925Z,150
2016-04-15T13:36:59.928Z,155
2016-04-15T13:37:59.947Z,155
2016-04-15T13:38:59.933Z,140
2016-04-15T13:39:59.952Z,120
2016-04-15T13:40:59.938Z,135
2016-04-15T13:41:59.957Z,155
2016-04-15T13:42:59.771Z,145
2016-04-15T13:43:59.931Z,155
2016-04-15T13:44:59.918Z,145
2016-04-15T13:45:59.937Z,135
2016-04-15T13:46:59.924Z,130
2016-04-15T13:48:01.193Z,135
2016-04-15T13:49:00.335Z,150
2016-04-15T13:49:59.916Z,165
2016-04-15T13:51:02.606Z,205
2016-04-15T13:53:01.784Z,220
2016-04-15T13:54:14.664Z,240
2016-04-15T13:55:00.117Z,240
2016-04-15T13:56:00.604Z,215
2016-04-15T13:56:59.904Z,210
2016-04-15T13:58:00.906Z,195
2016-04-15T13:59:01.268Z,175
2016-04-15T14:00:04.333Z,175
2016-04-15T14:01:04.727Z,180
2016-04-15T14:02:06.386Z,170
2016-04-15T14:03:46.486Z,180
2016-04-15T14:04:09.034Z,180
2016-04-15T14:05:03.050Z,170
2016-04-15T14:06:00.741Z,165
2016-04-15T14:07:00.493Z,185